Time;durP1;ratioP1;P1;durP2;ratioP2;P2;SDS_P1;SDS_P2;PMS_P1;PMS_P2;Temp;Humidity;BMP_temperature;BMP_pressure;BME280_temperature;BME280_humidity;BME280_pressure;Samples;Min_cycle;Max_cycle;Signal;HPM_P1;HPM_P2
2021/08/10 00:00:50;;;;;;;6.70;4.30;;;;;;;;;;6193490;28;20038;-70
2021/08/10 00:03:52;;;;;;;10.57;4.32;;;;;;;;;;6198595;28;20154;-70
2021/08/10 00:06:55;;;;;;;10.52;4.55;;;;;;;;;;6194174;28;20042;-70
2021/08/10 00:09:57;;;;;;;7.82;4.18;;;;;;;;;;6198557;28;20050;-70
2021/08/10 00:12:59;;;;;;;10.68;4.30;;;;;;;;;;6191069;28;20050;-70
2021/08/10 00:16:00;;;;;;;6.05;4.22;;;;;;;;;;6180859;28;20038;-70
2021/08/10 00:19:02;;;;;;;6.60;4.10;;;;;;;;;;6199770;28;20042;-70
2021/08/10 00:22:05;;;;;;;7.95;4.10;;;;;;;;;;6194134;28;20399;-70
2021/08/10 00:25:07;;;;;;;9.88;4.18;;;;;;;;;;6194213;28;20044;-70
2021/08/10 00:28:09;;;;;;;8.63;3.73;;;;;;;;;;6197839;28;21097;-70
2021/08/10 00:31:10;;;;;;;8.68;4.03;;;;;;;;;;6190770;28;20271;-70
2021/08/10 00:34:13;;;;;;;7.75;4.40;;;;;;;;;;6197576;28;20140;-71
2021/08/10 00:37:16;;;;;;;5.65;4.65;;;;;;;;;;6188045;28;20128;-70
2021/08/10 00:40:19;;;;;;;6.57;3.80;;;;;;;;;;6192635;28;20092;-70
2021/08/10 00:43:32;;;;;;;6.35;4.65;;;;;;;;;;6198971;28;20098;-70
2021/08/10 00:46:34;;;;;;;12.10;4.63;;;;;;;;;;6192767;28;20410;-70
2021/08/10 00:49:35;;;;;;;7.68;4.20;;;;;;;;;;6205130;28;20054;-70
2021/08/10 00:52:38;;;;;;;6.63;4.38;;;;;;;;;;6207387;28;20049;-70
2021/08/10 00:55:40;;;;;;;7.13;4.15;;;;;;;;;;6194444;28;20133;-70
2021/08/10 00:58:42;;;;;;;7.95;4.63;;;;;;;;;;6205894;28;20197;-70
2021/08/10 01:01:43;;;;;;;6.13;4.00;;;;;;;;;;6191922;28;20530;-70
2021/08/10 01:04:45;;;;;;;8.43;4.20;;;;;;;;;;6204085;28;20091;-70
2021/08/10 01:07:53;;;;;;;8.35;4.15;;;;;;;;;;6191646;28;20042;-69
2021/08/10 01:11:01;;;;;;;9.55;4.13;;;;;;;;;;6193843;28;20041;-69
2021/08/10 01:14:11;;;;;;;7.10;4.38;;;;;;;;;;6204660;28;20042;-69
2021/08/10 01:17:20;;;;;;;5.70;4.20;;;;;;;;;;6186091;28;20050;-70
2021/08/10 01:20:53;;;;;;;7.53;4.35;;;;;;;;;;6190057;28;20060;-69
2021/08/10 01:24:04;;;;;;;9.15;4.22;;;;;;;;;;6196855;28;20061;-69
2021/08/10 01:27:20;;;;;;;9.20;4.70;;;;;;;;;;6189513;28;20111;-69
2021/08/10 01:30:23;;;;;;;9.18;4.22;;;;;;;;;;6189644;28;20042;-70
2021/08/10 01:33:27;;;;;;;;;;;;;;;;;;6193789;28;20054;-69
2021/08/10 01:36:28;;;;;;;;;;;;;;;;;;6190779;28;19989;-69
2021/08/10 01:39:32;;;;;;;8.70;5.47;;;;;;;;;;6201199;28;20008;-69
2021/08/10 01:42:33;;;;;;;;;;;;;;;;;;6192418;28;20034;-69
2021/08/10 01:45:37;;;;;;;6.75;4.72;;;;;;;;;;6184624;28;19976;-69
2021/08/10 01:48:41;;;;;;;8.88;4.63;;;;;;;;;;6193892;28;20247;-69
2021/08/10 01:51:42;;;;;;;;;;;;;;;;;;6191728;28;20138;-69
2021/08/10 01:54:46;;;;;;;5.38;4.55;;;;;;;;;;6201574;28;19929;-69
2021/08/10 01:57:48;;;;;;;5.10;4.60;;;;;;;;;;6189270;28;20695;-69
2021/08/10 02:00:50;;;;;;;6.38;4.90;;;;;;;;;;6191822;28;20039;-69
2021/08/10 02:03:54;;;;;;;9.80;5.20;;;;;;;;;;6174968;28;20469;-69
2021/08/10 02:06:55;;;;;;;8.35;4.38;;;;;;;;;;6191873;28;20052;-69
2021/08/10 02:09:58;;;;;;;6.95;4.78;;;;;;;;;;6196584;28;20432;-70
2021/08/10 02:13:00;;;;;;;8.40;4.90;;;;;;;;;;6192887;28;20060;-70
2021/08/10 02:16:02;;;;;;;6.80;4.95;;;;;;;;;;6184088;28;20053;-70
2021/08/10 02:19:07;;;;;;;8.45;5.18;;;;;;;;;;6200583;28;20054;-70
2021/08/10 02:22:11;;;;;;;8.23;5.00;;;;;;;;;;6203972;28;20080;-69
2021/08/10 02:25:15;;;;;;;6.13;4.63;;;;;;;;;;6200661;28;20100;-70
2021/08/10 02:28:17;;;;;;;9.73;5.18;;;;;;;;;;6209752;28;20168;-69
2021/08/10 02:31:20;;;;;;;4.90;4.40;;;;;;;;;;6190167;28;20056;-69
2021/08/10 02:34:23;;;;;;;8.50;5.22;;;;;;;;;;6202141;28;20129;-69
2021/08/10 02:37:24;;;;;;;;;;;;;;;;;;6205522;28;20132;-70
2021/08/10 02:40:29;;;;;;;6.80;5.00;;;;;;;;;;6197868;28;19925;-69
2021/08/10 02:43:31;;;;;;;8.27;6.60;;;;;;;;;;6213015;28;20076;-69
2021/08/10 02:46:33;;;;;;;10.50;5.00;;;;;;;;;;6196674;28;20598;-70
2021/08/10 02:49:36;;;;;;;9.15;5.25;;;;;;;;;;6203250;28;20165;-69
2021/08/10 02:52:37;;;;;;;8.38;5.18;;;;;;;;;;6194214;28;20137;-69
2021/08/10 02:55:42;;;;;;;7.78;5.20;;;;;;;;;;6201897;28;20069;-70
2021/08/10 02:58:48;;;;;;;8.52;5.10;;;;;;;;;;6207607;28;20098;-69
2021/08/10 03:01:53;;;;;;;10.50;5.93;;;;;;;;;;6182071;28;20105;-69
2021/08/10 03:04:58;;;;;;;10.15;5.57;;;;;;;;;;6199882;28;20065;-69
2021/08/10 03:08:01;;;;;;;8.25;4.82;;;;;;;;;;6184410;28;20115;-69
2021/08/10 03:11:05;;;;;;;7.05;5.00;;;;;;;;;;6188768;28;20444;-69
2021/08/10 03:14:07;;;;;;;8.82;5.30;;;;;;;;;;6196125;28;20137;-70
2021/08/10 03:17:09;;;;;;;7.10;4.80;;;;;;;;;;6176881;28;20045;-69
2021/08/10 03:20:14;;;;;;;10.20;4.97;;;;;;;;;;6189805;28;20046;-69
2021/08/10 03:23:17;;;;;;;9.40;5.05;;;;;;;;;;6193873;28;20052;-70
2021/08/10 03:26:21;;;;;;;11.32;5.43;;;;;;;;;;6186319;28;20128;-69
2021/08/10 03:29:23;;;;;;;8.77;5.00;;;;;;;;;;6198609;28;20053;-69
2021/08/10 03:32:25;;;;;;;8.45;5.45;;;;;;;;;;6191620;28;20100;-69
2021/08/10 03:35:29;;;;;;;9.32;5.35;;;;;;;;;;6189310;28;20054;-70
2021/08/10 03:38:31;;;;;;;7.20;4.90;;;;;;;;;;6196749;28;20065;-69
2021/08/10 03:41:33;;;;;;;8.82;4.75;;;;;;;;;;6190871;28;20181;-69
2021/08/10 03:44:35;;;;;;;10.05;5.30;;;;;;;;;;6201541;28;20081;-69
2021/08/10 03:47:37;;;;;;;10.73;4.95;;;;;;;;;;6181125;28;20116;-69
2021/08/10 03:50:41;;;;;;;14.13;6.07;;;;;;;;;;6187302;28;20050;-71
2021/08/10 03:53:43;;;;;;;7.20;5.22;;;;;;;;;;6199933;28;20066;-69
2021/08/10 03:56:49;;;;;;;7.18;4.53;;;;;;;;;;6192442;28;20060;-69
2021/08/10 03:59:54;;;;;;;8.27;4.57;;;;;;;;;;6196686;28;20042;-70
2021/08/10 04:02:56;;;;;;;6.82;4.72;;;;;;;;;;6183439;28;20578;-69
2021/08/10 04:06:00;;;;;;;8.23;4.88;;;;;;;;;;6185677;28;22282;-69
2021/08/10 04:09:02;;;;;;;9.95;5.05;;;;;;;;;;6197141;28;20152;-69
2021/08/10 04:12:05;;;;;;;7.82;4.65;;;;;;;;;;6188008;28;20525;-69
2021/08/10 04:15:08;;;;;;;7.00;4.20;;;;;;;;;;6185343;28;20050;-70
2021/08/10 04:18:11;;;;;;;7.50;5.00;;;;;;;;;;6185593;28;20184;-69
2021/08/10 04:21:15;;;;;;;9.02;4.78;;;;;;;;;;6181827;28;20509;-69
2021/08/10 04:24:16;;;;;;;6.13;4.30;;;;;;;;;;6196684;28;20601;-70
2021/08/10 04:27:18;;;;;;;8.23;4.80;;;;;;;;;;6184047;28;20046;-69
2021/08/10 04:30:20;;;;;;;10.20;5.32;;;;;;;;;;6190771;28;20145;-69
2021/08/10 04:33:21;;;;;;;8.70;5.63;;;;;;;;;;6191827;28;20245;-69
2021/08/10 04:36:24;;;;;;;8.90;5.38;;;;;;;;;;6185034;28;20184;-69
2021/08/10 04:39:28;;;;;;;10.50;5.53;;;;;;;;;;6193665;28;20403;-69
2021/08/10 04:42:29;;;;;;;7.13;4.95;;;;;;;;;;6196664;28;20061;-69
2021/08/10 04:45:31;;;;;;;8.90;5.50;;;;;;;;;;6193288;28;20050;-70
2021/08/10 04:48:33;;;;;;;7.90;5.20;;;;;;;;;;6195053;28;20070;-69
2021/08/10 04:51:36;;;;;;;10.88;5.53;;;;;;;;;;6200627;28;20128;-69
2021/08/10 04:54:37;;;;;;;7.53;5.00;;;;;;;;;;6211925;28;20135;-69
2021/08/10 04:57:39;;;;;;;6.60;4.57;;;;;;;;;;6206508;28;20422;-69
2021/08/10 05:00:40;;;;;;;9.50;4.78;;;;;;;;;;6195503;28;20780;-69
2021/08/10 05:03:42;;;;;;;9.57;4.82;;;;;;;;;;6194901;28;20184;-69
2021/08/10 05:06:45;;;;;;;11.20;4.97;;;;;;;;;;6192645;28;20051;-69
2021/08/10 05:09:46;;;;;;;5.38;4.88;;;;;;;;;;6201525;28;20050;-69
2021/08/10 05:12:48;;;;;;;6.57;5.22;;;;;;;;;;6193044;28;20453;-69
2021/08/10 05:15:49;;;;;;;6.47;4.68;;;;;;;;;;6187577;28;20544;-69
2021/08/10 05:18:51;;;;;;;8.00;4.80;;;;;;;;;;6201246;28;20111;-69
2021/08/10 05:21:54;;;;;;;5.95;4.80;;;;;;;;;;6188771;28;20050;-69
2021/08/10 05:24:55;;;;;;;7.20;4.53;;;;;;;;;;6208851;28;20050;-70
2021/08/10 05:27:57;;;;;;;7.15;4.70;;;;;;;;;;6201495;28;20046;-69
2021/08/10 05:30:58;;;;;;;7.03;4.57;;;;;;;;;;6197117;28;20058;-69
2021/08/10 05:34:00;;;;;;;8.75;5.07;;;;;;;;;;6199270;28;20089;-69
2021/08/10 05:37:03;;;;;;;6.55;5.00;;;;;;;;;;6192768;28;20192;-71
2021/08/10 05:40:06;;;;;;;9.10;5.40;;;;;;;;;;6200757;28;20084;-71
2021/08/10 05:43:08;;;;;;;6.22;4.30;;;;;;;;;;6196360;28;20467;-69
2021/08/10 05:46:10;;;;;;;6.32;5.00;;;;;;;;;;6186829;28;20058;-71
2021/08/10 05:49:11;;;;;;;9.68;5.30;;;;;;;;;;6194832;28;20056;-71
2021/08/10 05:52:14;;;;;;;7.28;4.80;;;;;;;;;;6196076;28;20042;-69
2021/08/10 05:55:16;;;;;;;9.13;4.65;;;;;;;;;;6192289;28;20162;-71
2021/08/10 05:58:17;;;;;;;9.73;5.45;;;;;;;;;;6198395;28;20433;-71
2021/08/10 06:01:19;;;;;;;8.45;4.88;;;;;;;;;;6191342;28;20555;-71
2021/08/10 06:04:21;;;;;;;9.98;4.70;;;;;;;;;;6196644;28;20120;-71
2021/08/10 06:07:23;;;;;;;7.22;4.45;;;;;;;;;;6185437;28;20058;-72
2021/08/10 06:10:25;;;;;;;6.03;4.63;;;;;;;;;;6194246;28;20046;-71
2021/08/10 06:13:27;;;;;;;9.27;4.30;;;;;;;;;;6201035;28;20065;-72
2021/08/10 06:16:28;;;;;;;11.95;4.60;;;;;;;;;;6192796;28;20140;-71
2021/08/10 06:19:30;;;;;;;7.25;4.07;;;;;;;;;;6196375;28;20184;-71
2021/08/10 06:22:33;;;;;;;6.10;4.30;;;;;;;;;;6190545;28;20156;-71
2021/08/10 06:25:35;;;;;;;7.88;4.38;;;;;;;;;;6194048;28;20556;-71
2021/08/10 06:28:36;;;;;;;6.63;4.00;;;;;;;;;;6202597;28;20544;-72
2021/08/10 06:31:38;;;;;;;7.05;4.20;;;;;;;;;;6187420;28;20193;-72
2021/08/10 06:34:39;;;;;;;7.55;4.20;;;;;;;;;;6197985;28;20046;-71
2021/08/10 06:37:42;;;;;;;6.20;3.97;;;;;;;;;;6186266;28;20646;-72
2021/08/10 06:40:44;;;;;;;7.47;4.20;;;;;;;;;;6193673;28;20568;-71
2021/08/10 06:43:45;;;;;;;10.63;4.68;;;;;;;;;;6200865;28;20096;-71
2021/08/10 06:46:47;;;;;;;8.05;5.03;;;;;;;;;;6180445;28;20042;-72
2021/08/10 06:49:48;;;;;;;8.32;4.75;;;;;;;;;;6199949;28;20414;-71
2021/08/10 06:52:51;;;;;;;7.20;4.95;;;;;;;;;;6187866;28;20050;-71
2021/08/10 06:55:53;;;;;;;;;;;;;;;;;;6191800;28;20130;-71
2021/08/10 06:58:54;;;;;;;8.82;4.63;;;;;;;;;;6201227;28;19926;-71
2021/08/10 07:01:56;;;;;;;9.15;4.40;;;;;;;;;;6190401;28;20100;-71
2021/08/10 07:04:57;;;;;;;8.30;4.30;;;;;;;;;;6194990;28;20188;-71
2021/08/10 07:08:00;;;;;;;7.78;4.30;;;;;;;;;;6191951;28;20107;-71
2021/08/10 07:11:02;;;;;;;5.85;4.28;;;;;;;;;;6193953;28;20724;-71
2021/08/10 07:14:11;;;;;;;6.72;4.30;;;;;;;;;;6196892;28;20056;-71
2021/08/10 07:17:12;;;;;;;7.88;4.38;;;;;;;;;;6183108;28;20050;-71
2021/08/10 07:20:14;;;;;;;9.57;4.47;;;;;;;;;;6190429;28;20103;-72
2021/08/10 07:23:17;;;;;;;8.50;4.53;;;;;;;;;;6193974;28;20129;-71
2021/08/10 07:26:18;;;;;;;8.95;4.38;;;;;;;;;;6194224;28;20137;-71
2021/08/10 07:29:20;;;;;;;7.65;4.10;;;;;;;;;;6203031;28;20096;-71
2021/08/10 07:32:21;;;;;;;8.02;4.40;;;;;;;;;;6181382;28;20050;-72
2021/08/10 07:35:23;;;;;;;11.52;4.38;;;;;;;;;;6196842;28;20050;-72
2021/08/10 07:38:26;;;;;;;8.23;3.80;;;;;;;;;;6194431;28;20034;-71
2021/08/10 07:41:28;;;;;;;5.95;4.18;;;;;;;;;;6188835;28;20125;-72
2021/08/10 07:44:29;;;;;;;13.63;4.05;;;;;;;;;;6199285;28;20512;-72
2021/08/10 07:47:31;;;;;;;11.18;4.07;;;;;;;;;;6180300;28;20041;-72
2021/08/10 07:50:32;;;;;;;7.93;4.10;;;;;;;;;;6183524;28;20132;-72
2021/08/10 07:53:36;;;;;;;8.82;3.92;;;;;;;;;;6193431;28;20137;-71
2021/08/10 07:56:37;;;;;;;7.88;3.78;;;;;;;;;;6188366;28;20050;-71
2021/08/10 07:59:39;;;;;;;6.97;4.28;;;;;;;;;;6196376;28;20042;-72
2021/08/10 08:02:41;;;;;;;6.85;3.60;;;;;;;;;;6177582;28;20051;-71
2021/08/10 08:05:42;;;;;;;10.15;3.88;;;;;;;;;;6183743;28;20129;-72
2021/08/10 08:08:45;;;;;;;8.07;4.03;;;;;;;;;;6198427;28;20038;-72
2021/08/10 08:11:46;;;;;;;;;;;;;;;;;;6189213;28;20062;-73
2021/08/10 08:14:48;;;;;;;9.93;4.22;;;;;;;;;;6202458;28;20003;-72
2021/08/10 08:17:51;;;;;;;8.32;4.10;;;;;;;;;;6180922;28;20397;-72
2021/08/10 08:20:53;;;;;;;12.13;3.70;;;;;;;;;;6189103;28;20208;-72
2021/08/10 08:23:56;;;;;;;5.38;3.50;;;;;;;;;;6203929;28;20092;-71
2021/08/10 08:26:57;;;;;;;;;;;;;;;;;;6191033;28;20116;-72
2021/08/10 08:29:59;;;;;;;6.57;3.70;;;;;;;;;;6202598;28;20016;-72
2021/08/10 08:33:00;;;;;;;7.32;4.47;;;;;;;;;;6190432;28;20099;-72
2021/08/10 08:36:02;;;;;;;5.28;3.72;;;;;;;;;;6191733;28;20053;-72
2021/08/10 08:39:05;;;;;;;7.13;3.90;;;;;;;;;;6200079;28;20050;-72
2021/08/10 08:42:06;;;;;;;9.15;3.83;;;;;;;;;;6192703;28;20177;-72
2021/08/10 08:45:10;;;;;;;8.40;3.78;;;;;;;;;;6203574;28;20194;-72
2021/08/10 08:48:13;;;;;;;8.27;3.95;;;;;;;;;;6189074;28;20042;-72
2021/08/10 08:51:17;;;;;;;5.32;3.35;;;;;;;;;;6192007;28;20119;-72
2021/08/10 08:54:20;;;;;;;3.65;3.30;;;;;;;;;;6203830;28;20084;-72
2021/08/10 08:57:21;;;;;;;7.72;3.67;;;;;;;;;;6200000;28;20126;-72
2021/08/10 09:00:24;;;;;;;6.22;3.45;;;;;;;;;;6189798;28;20125;-72
2021/08/10 09:03:26;;;;;;;6.38;3.80;;;;;;;;;;6192412;28;20135;-72
2021/08/10 09:06:27;;;;;;;9.45;3.60;;;;;;;;;;6189903;28;20092;-72
2021/08/10 09:09:31;;;;;;;6.05;3.38;;;;;;;;;;6200952;28;20050;-72
2021/08/10 09:12:41;;;;;;;6.35;3.53;;;;;;;;;;6193403;28;20052;-72
2021/08/10 09:15:46;;;;;;;8.63;3.85;;;;;;;;;;6194501;28;20038;-72
2021/08/10 09:18:48;;;;;;;4.63;3.60;;;;;;;;;;6196136;28;20479;-72
2021/08/10 09:21:50;;;;;;;6.28;3.45;;;;;;;;;;6186917;28;20096;-72
2021/08/10 09:24:55;;;;;;;6.18;3.85;;;;;;;;;;6201269;28;20054;-72
2021/08/10 09:28:04;;;;;;;5.70;3.70;;;;;;;;;;6193961;28;20482;-72
2021/08/10 09:31:28;;;;;;;4.63;3.30;;;;;;;;;;6191634;28;20068;-72
2021/08/10 09:34:30;;;;;;;7.18;3.70;;;;;;;;;;6201970;28;20352;-72
2021/08/10 09:37:32;;;;;;;9.32;3.70;;;;;;;;;;6194371;28;20060;-72
2021/08/10 09:40:35;;;;;;;6.05;3.42;;;;;;;;;;6192827;28;20543;-72
2021/08/10 09:43:39;;;;;;;6.97;3.90;;;;;;;;;;6205390;28;20200;-72
2021/08/10 09:46:48;;;;;;;6.10;3.30;;;;;;;;;;6191187;28;20584;-72
2021/08/10 09:49:50;;;;;;;6.13;3.45;;;;;;;;;;6202167;28;20046;-72
2021/08/10 09:52:51;;;;;;;9.38;3.67;;;;;;;;;;6187805;28;20085;-72
2021/08/10 09:55:55;;;;;;;6.05;3.47;;;;;;;;;;6194051;28;20046;-72
2021/08/10 09:58:58;;;;;;;6.95;3.63;;;;;;;;;;6196284;28;20517;-72
2021/08/10 10:02:00;;;;;;;5.82;3.47;;;;;;;;;;6186356;28;20069;-72
2021/08/10 10:05:02;;;;;;;5.53;3.70;;;;;;;;;;6194910;28;20047;-70
2021/08/10 10:08:17;;;;;;;8.13;3.10;;;;;;;;;;6188379;28;20658;-72
2021/08/10 10:11:20;;;;;;;7.32;3.38;;;;;;;;;;6195310;28;20513;-72
2021/08/10 10:14:22;;;;;;;3.85;3.38;;;;;;;;;;6200076;28;20118;-72
2021/08/10 10:17:24;;;;;;;13.02;4.05;;;;;;;;;;6176104;28;20042;-72
2021/08/10 10:20:26;;;;;;;7.40;3.95;;;;;;;;;;6191501;28;20064;-72
2021/08/10 10:23:28;;;;;;;7.15;3.75;;;;;;;;;;6196470;28;20046;-72
2021/08/10 10:26:33;;;;;;;5.72;3.65;;;;;;;;;;6195026;28;20046;-72
2021/08/10 10:29:35;;;;;;;6.47;4.28;;;;;;;;;;6204210;28;20513;-72
2021/08/10 10:32:36;;;;;;;;;;;;;;;;;;6187693;28;20137;-72
2021/08/10 10:35:39;;;;;;;6.80;4.00;;;;;;;;;;6189508;28;20877;-72
2021/08/10 10:38:42;;;;;;;12.02;4.55;;;;;;;;;;6200238;28;20049;-72
2021/08/10 10:41:46;;;;;;;8.35;3.88;;;;;;;;;;6194611;28;20050;-72
2021/08/10 10:44:51;;;;;;;9.23;3.78;;;;;;;;;;6201999;28;20430;-72
2021/08/10 10:47:52;;;;;;;4.40;3.45;;;;;;;;;;6190129;28;20050;-70
2021/08/10 10:51:03;;;;;;;11.00;3.83;;;;;;;;;;6188902;28;20046;-70
2021/08/10 10:54:23;;;;;;;6.00;3.50;;;;;;;;;;6201202;28;20196;-70
2021/08/10 10:57:35;;;;;;;7.07;3.40;;;;;;;;;;6184838;28;20613;-70
2021/08/10 11:00:37;;;;;;;5.40;3.40;;;;;;;;;;6190575;28;20048;-72
2021/08/10 11:03:39;;;;;;;7.80;3.30;;;;;;;;;;6194900;28;20111;-73
2021/08/10 11:06:46;;;;;;;4.47;3.20;;;;;;;;;;6189341;28;20042;-72
2021/08/10 11:09:57;;;;;;;6.28;3.20;;;;;;;;;;6198853;28;20374;-72
2021/08/10 11:13:00;;;;;;;5.78;3.30;;;;;;;;;;6191533;28;20049;-72
2021/08/10 11:16:02;;;;;;;6.93;3.22;;;;;;;;;;6183209;28;20141;-73
2021/08/10 11:19:30;;;;;;;5.97;3.42;;;;;;;;;;6195620;28;20058;-72
2021/08/10 11:22:32;;;;;;;5.95;3.13;;;;;;;;;;6191363;28;20053;-70
2021/08/10 11:25:33;;;;;;;6.50;3.35;;;;;;;;;;6191963;28;20050;-73
2021/08/10 11:28:38;;;;;;;6.40;3.13;;;;;;;;;;6204737;28;20107;-72
2021/08/10 11:31:52;;;;;;;5.15;3.05;;;;;;;;;;6191591;28;20089;-70
2021/08/10 11:34:54;;;;;;;4.63;3.20;;;;;;;;;;6198394;28;20038;-70
2021/08/10 11:38:14;;;;;;;6.22;2.97;;;;;;;;;;6183316;28;20068;-70
2021/08/10 11:41:18;;;;;;;7.05;3.10;;;;;;;;;;6184960;28;20091;-70
2021/08/10 11:44:22;;;;;;;5.07;3.15;;;;;;;;;;6201880;28;20077;-70
2021/08/10 11:47:24;;;;;;;4.95;2.72;;;;;;;;;;6186885;28;20181;-70
2021/08/10 11:50:29;;;;;;;;;;;;;;;;;;6196342;28;20184;-71
2021/08/10 11:53:31;;;;;;;6.38;2.90;;;;;;;;;;6211956;28;19921;-70
2021/08/10 11:56:34;;;;;;;4.32;2.90;;;;;;;;;;6193971;28;20054;-72
2021/08/10 11:59:38;;;;;;;5.60;3.20;;;;;;;;;;6209975;28;20041;-70
2021/08/10 12:02:43;;;;;;;4.72;3.10;;;;;;;;;;6186575;28;20042;-70
2021/08/10 12:05:45;;;;;;;8.00;3.17;;;;;;;;;;6194084;28;20051;-73
2021/08/10 12:08:47;;;;;;;5.20;3.20;;;;;;;;;;6201872;28;20137;-72
2021/08/10 12:11:51;;;;;;;;;;;;;;;;;;6193196;28;20219;-72
2021/08/10 12:14:54;;;;;;;5.30;3.00;;;;;;;;;;6203036;28;20217;-70
2021/08/10 12:17:55;;;;;;;4.85;3.30;;;;;;;;;;6184402;28;20050;-73
2021/08/10 12:21:02;;;;;;;6.68;3.22;;;;;;;;;;6190522;28;20042;-70
2021/08/10 12:24:04;;;;;;;3.85;2.88;;;;;;;;;;6201602;28;20046;-72
2021/08/10 12:27:06;;;;;;;8.05;3.08;;;;;;;;;;6190133;28;20103;-73
2021/08/10 12:30:16;;;;;;;6.63;2.63;;;;;;;;;;6203960;28;20129;-73
2021/08/10 12:33:21;;;;;;;7.50;2.80;;;;;;;;;;6197704;28;20054;-73
2021/08/10 12:36:23;;;;;;;5.18;2.63;;;;;;;;;;6199714;28;20064;-73
2021/08/10 12:39:24;;;;;;;6.20;2.95;;;;;;;;;;6199499;28;20046;-72
2021/08/10 12:42:26;;;;;;;4.97;2.92;;;;;;;;;;6194128;28;20364;-73
2021/08/10 12:45:33;;;;;;;3.88;2.80;;;;;;;;;;6195767;28;20529;-70
2021/08/10 12:48:34;;;;;;;4.30;3.00;;;;;;;;;;6195242;28;20133;-72
2021/08/10 12:52:01;;;;;;;4.30;2.42;;;;;;;;;;6204776;28;20494;-73
2021/08/10 12:55:03;;;;;;;4.50;2.70;;;;;;;;;;6203269;28;20052;-73
2021/08/10 12:58:05;;;;;;;4.55;2.80;;;;;;;;;;6207223;28;20481;-72
2021/08/10 13:01:08;;;;;;;;;;;;;;;;;;6178535;28;20047;-73
2021/08/10 13:04:10;;;;;;;6.00;2.70;;;;;;;;;;6199879;28;20366;-70
2021/08/10 13:07:14;;;;;;;3.95;2.70;;;;;;;;;;6195363;28;20111;-70
2021/08/10 13:10:15;;;;;;;5.72;2.65;;;;;;;;;;6196212;28;20141;-73
2021/08/10 13:13:25;;;;;;;6.00;2.50;;;;;;;;;;6196577;28;20042;-73
2021/08/10 13:16:38;;;;;;;10.45;2.60;;;;;;;;;;6186128;28;20541;-72
2021/08/10 13:19:40;;;;;;;3.97;2.72;;;;;;;;;;6200398;28;20042;-72
2021/08/10 13:22:44;;;;;;;3.53;2.38;;;;;;;;;;6194412;28;20039;-73
2021/08/10 13:26:10;;;;;;;4.10;2.58;;;;;;;;;;6190566;28;20068;-73
2021/08/10 13:29:12;;;;;;;5.22;2.70;;;;;;;;;;6183187;28;20932;-73
2021/08/10 13:32:18;;;;;;;10.25;2.50;;;;;;;;;;6191734;28;20062;-71
2021/08/10 13:35:20;;;;;;;5.50;2.63;;;;;;;;;;6191688;28;20045;-70
2021/08/10 13:38:21;;;;;;;5.53;2.75;;;;;;;;;;6197970;28;20494;-70
2021/08/10 13:41:24;;;;;;;3.50;2.70;;;;;;;;;;6189873;28;20060;-70
2021/08/10 13:44:25;;;;;;;5.95;2.67;;;;;;;;;;6200714;28;20112;-72
2021/08/10 13:47:28;;;;;;;;;;;;;;;;;;6189035;28;20103;-70
2021/08/10 13:50:30;;;;;;;9.65;3.05;;;;;;;;;;6188350;28;19926;-73
2021/08/10 13:53:32;;;;;;;;;;;;;;;;;;6197122;28;20119;-73
2021/08/10 13:56:33;;;;;;;5.32;2.78;;;;;;;;;;6195023;28;19979;-70
2021/08/10 13:59:35;;;;;;;5.35;2.75;;;;;;;;;;6202581;28;20482;-70
2021/08/10 14:02:40;;;;;;;5.38;2.70;;;;;;;;;;6183150;28;20099;-70
2021/08/10 14:05:42;;;;;;;4.65;2.70;;;;;;;;;;6186354;28;20055;-70
2021/08/10 14:08:47;;;;;;;4.47;3.22;;;;;;;;;;6202662;28;20124;-70
2021/08/10 14:11:48;;;;;;;5.13;2.83;;;;;;;;;;6190965;28;20055;-70
2021/08/10 14:14:50;;;;;;;3.80;2.70;;;;;;;;;;6201132;28;20410;-70
2021/08/10 14:17:53;;;;;;;3.42;2.63;;;;;;;;;;6181657;28;20070;-70
2021/08/10 14:20:54;;;;;;;10.43;3.28;;;;;;;;;;6193343;28;20049;-73
2021/08/10 14:23:56;;;;;;;5.05;2.47;;;;;;;;;;6199903;28;20066;-70
2021/08/10 14:27:00;;;;;;;7.97;2.60;;;;;;;;;;6191807;28;20134;-72
2021/08/10 14:30:03;;;;;;;6.25;3.25;;;;;;;;;;6203495;28;20064;-73
2021/08/10 14:33:06;;;;;;;3.78;3.08;;;;;;;;;;6183463;28;20096;-72
2021/08/10 14:36:07;;;;;;;7.00;2.70;;;;;;;;;;6184242;28;20052;-73
2021/08/10 14:39:11;;;;;;;6.80;2.90;;;;;;;;;;6201818;28;20045;-73
2021/08/10 14:42:12;;;;;;;5.20;3.08;;;;;;;;;;6192787;28;20707;-73
2021/08/10 14:45:14;;;;;;;6.35;2.85;;;;;;;;;;6194495;28;20137;-72
2021/08/10 14:48:17;;;;;;;6.25;2.65;;;;;;;;;;6193566;28;20073;-72
2021/08/10 14:51:19;;;;;;;4.63;2.97;;;;;;;;;;6193187;28;20187;-73
2021/08/10 14:54:20;;;;;;;5.35;3.05;;;;;;;;;;6199954;28;20111;-70
2021/08/10 14:57:22;;;;;;;7.60;3.05;;;;;;;;;;6190254;28;20049;-73
2021/08/10 15:00:23;;;;;;;4.05;3.05;;;;;;;;;;6193353;28;20072;-73
2021/08/10 15:03:26;;;;;;;5.68;3.05;;;;;;;;;;6194544;28;20121;-73
2021/08/10 15:06:28;;;;;;;4.13;2.90;;;;;;;;;;6187328;28;20096;-70
2021/08/10 15:09:29;;;;;;;;;;;;;;;;;;6197847;28;20566;-72
2021/08/10 15:12:31;;;;;;;5.22;3.05;;;;;;;;;;6193502;28;20466;-72
2021/08/10 15:15:32;;;;;;;;;;;;;;;;;;6189795;28;20102;-73
2021/08/10 15:18:35;;;;;;;7.05;3.00;;;;;;;;;;6194805;28;20207;-72
2021/08/10 15:21:37;;;;;;;8.07;3.13;;;;;;;;;;6189046;28;20518;-72
2021/08/10 15:24:38;;;;;;;;;;;;;;;;;;6200005;28;20220;-72
2021/08/10 15:27:40;;;;;;;4.45;2.70;;;;;;;;;;6183781;28;20408;-72
2021/08/10 15:30:42;;;;;;;6.00;2.83;;;;;;;;;;6190383;28;20096;-73
2021/08/10 15:33:45;;;;;;;7.25;2.90;;;;;;;;;;6194959;28;20049;-73
2021/08/10 15:36:46;;;;;;;5.32;2.60;;;;;;;;;;6191569;28;20053;-73
2021/08/10 15:39:48;;;;;;;;;;;;;;;;;;6196477;28;20100;-72
2021/08/10 15:42:49;;;;;;;4.30;2.72;;;;;;;;;;6188144;28;19921;-73
2021/08/10 15:45:51;;;;;;;;;;;;;;;;;;6184270;28;20133;-74
2021/08/10 15:48:54;;;;;;;6.78;3.47;;;;;;;;;;6195691;28;19922;-73
2021/08/10 15:51:56;;;;;;;2.92;2.42;;;;;;;;;;6186885;28;20089;-72
2021/08/10 15:54:58;;;;;;;6.28;3.20;;;;;;;;;;6197187;28;20486;-72
2021/08/10 15:57:59;;;;;;;5.78;2.95;;;;;;;;;;6190628;28;20153;-72
2021/08/10 16:01:01;;;;;;;3.72;2.35;;;;;;;;;;6182988;28;20058;-72
2021/08/10 16:04:04;;;;;;;6.50;2.78;;;;;;;;;;6190743;28;20177;-72
2021/08/10 16:07:06;;;;;;;5.72;2.85;;;;;;;;;;6186080;28;20459;-71
2021/08/10 16:10:08;;;;;;;9.68;3.20;;;;;;;;;;6198048;28;20077;-73
2021/08/10 16:13:10;;;;;;;6.05;3.05;;;;;;;;;;6195288;28;20550;-72
2021/08/10 16:16:12;;;;;;;7.32;2.80;;;;;;;;;;6182626;28;20057;-73
2021/08/10 16:19:15;;;;;;;8.70;2.95;;;;;;;;;;6194333;28;20541;-71
2021/08/10 16:22:16;;;;;;;7.65;2.80;;;;;;;;;;6187886;28;20109;-72
2021/08/10 16:25:18;;;;;;;10.10;3.47;;;;;;;;;;6193366;28;20042;-73
2021/08/10 16:28:20;;;;;;;4.18;2.33;;;;;;;;;;6198355;28;20501;-72
2021/08/10 16:31:21;;;;;;;4.65;2.55;;;;;;;;;;6184748;28;20038;-72
2021/08/10 16:34:24;;;;;;;4.60;2.83;;;;;;;;;;6193897;28;20414;-72
2021/08/10 16:37:26;;;;;;;4.20;2.92;;;;;;;;;;6182935;28;20064;-72
2021/08/10 16:40:27;;;;;;;6.77;3.30;;;;;;;;;;6194289;28;20055;-72
2021/08/10 16:43:29;;;;;;;3.40;2.85;;;;;;;;;;6200887;28;20140;-72
2021/08/10 16:46:31;;;;;;;6.53;2.90;;;;;;;;;;6188409;28;20100;-72
2021/08/10 16:49:35;;;;;;;5.63;3.20;;;;;;;;;;6200213;28;20050;-72
2021/08/10 16:52:37;;;;;;;5.32;3.28;;;;;;;;;;6200268;28;20149;-72
2021/08/10 16:55:39;;;;;;;7.20;2.90;;;;;;;;;;6192985;28;20054;-71
2021/08/10 16:58:40;;;;;;;11.85;3.30;;;;;;;;;;6205004;28;20461;-71
2021/08/10 17:01:42;;;;;;;5.13;2.80;;;;;;;;;;6188272;28;20033;-71
2021/08/10 17:04:45;;;;;;;6.13;2.83;;;;;;;;;;6199426;28;20115;-72
2021/08/10 17:07:46;;;;;;;8.52;2.70;;;;;;;;;;6188081;28;20050;-71
2021/08/10 17:10:48;;;;;;;5.95;2.85;;;;;;;;;;6190150;28;20400;-72
2021/08/10 17:13:49;;;;;;;5.00;3.03;;;;;;;;;;6202380;28;20046;-71
2021/08/10 17:16:51;;;;;;;6.35;2.95;;;;;;;;;;6189492;28;20073;-72
2021/08/10 17:19:54;;;;;;;6.57;2.92;;;;;;;;;;6200153;28;20042;-72
2021/08/10 17:22:56;;;;;;;7.18;3.20;;;;;;;;;;6187471;28;20061;-72
2021/08/10 17:25:57;;;;;;;7.53;2.77;;;;;;;;;;6197279;28;20691;-72
2021/08/10 17:28:59;;;;;;;5.68;2.95;;;;;;;;;;6205656;28;20115;-72
2021/08/10 17:32:00;;;;;;;3.88;2.85;;;;;;;;;;6189660;28;20126;-72
2021/08/10 17:35:04;;;;;;;9.80;3.10;;;;;;;;;;6197515;28;20153;-71
2021/08/10 17:38:07;;;;;;;5.93;3.13;;;;;;;;;;6191801;28;20042;-72
2021/08/10 17:41:08;;;;;;;7.85;3.17;;;;;;;;;;6193482;28;20050;-71
2021/08/10 17:44:10;;;;;;;10.32;3.35;;;;;;;;;;6203552;28;20398;-72
2021/08/10 17:47:11;;;;;;;4.63;3.05;;;;;;;;;;6184696;28;20529;-72
2021/08/10 17:50:15;;;;;;;9.85;3.30;;;;;;;;;;6190719;28;20062;-73
2021/08/10 17:53:18;;;;;;;4.05;2.70;;;;;;;;;;6198209;28;20054;-72
2021/08/10 17:56:21;;;;;;;4.47;2.80;;;;;;;;;;6192663;28;20050;-72
2021/08/10 17:59:22;;;;;;;7.22;2.90;;;;;;;;;;6199378;28;20049;-72
2021/08/10 18:02:24;;;;;;;6.20;2.90;;;;;;;;;;6185559;28;20189;-71
2021/08/10 18:05:27;;;;;;;6.97;3.28;;;;;;;;;;6187706;28;20516;-72
2021/08/10 18:08:29;;;;;;;8.02;2.97;;;;;;;;;;6200789;28;20050;-72
2021/08/10 18:11:30;;;;;;;7.05;2.97;;;;;;;;;;6193762;28;20217;-72
2021/08/10 18:14:32;;;;;;;4.80;3.08;;;;;;;;;;6199725;28;20042;-72
2021/08/10 18:17:34;;;;;;;4.03;2.85;;;;;;;;;;6184283;28;20042;-71
2021/08/10 18:20:37;;;;;;;6.05;3.47;;;;;;;;;;6188997;28;20141;-72
2021/08/10 18:23:38;;;;;;;;;;;;;;;;;;6198235;28;20057;-72